Detall de PIREP

Printer-friendly versionPDF version

[2012/11/25 14:32:00]
Flight IATA:CT1005
Pilot Number:037
Company ICAO:CAT
Aircraft Type:B752/E
PAX:173
Aircraft Registration:PAX
Departing Airport: LECO
Destination Airport: LEBL
Alternate Airport:LEPA
Online: VATSIM
Route:ROXER UM190 BLV UM601 GRAUS
Flight Level:F290
No Slew and time accel
No pause
Crash detect
Detect pilot in Cockpit between each 30 and 45 minutes
14:32 Zero fuel Weight: 181901 Lbs, Fuel Weight: 21783 Lbs
14:33 VATSIM:LECO 251330Z 00000KT 9999 FEW035 14/08 Q1017
14:33 VATSIM:LEBL 251330Z VRB02KT 8000 FEW020 17/13 Q1018 NOSIG
14:43 Take-off
14:43 Take off Weight: 202573 Lbs
14:43 Wind: 318º @ 000 Knots Heading: 030º
14:43 POS N43º 18´ 32´´ W008º 22´ 17´´
14:43 Flaps:2 at 195 Knots
14:43 Gear Up: 199 Knots
14:43 Flaps:1 at 205 Knots
14:44 Flaps:0 at 208 Knots
14:54 TOC
14:54 Fuel Weight: 17052 Lb
14:58 Wind:265º@000 Knots Heading: 090º GroundSpeed: 494 Knots Altitude 29055 ft
15:13 Wind:110º@031 Knots Heading: 093º Ground Speed: 466 Knots Altitude 29058 ft
15:28 Wind:101º@013 Knots Heading: 115º Ground Speed: 484 Knots Altitude 29081 ft
15:38 TOD
15:38 Fuel Weight: 8216 Lb
15:43 Wind:144º@007 Knots Heading: 110º Ground Speed: 452 Knots Altitude 22824 ft
15:50 Flaps:1 at 215 Knots
15:51 Flaps:2 at 193 Knots
15:52 Flaps:3 at 166 Knots
15:52 Gear Down: 165 Knots
15:52 Flaps:4 at 162 Knots
15:53 Flaps:5 at 159 Knots
15:53 Flaps:6 at 150 Knots
15:54 TouchDown:Rate -231 ft/min Speed: 130 Knots
15:54 VATSIM:LEBL 251500Z 17004KT 9999 FEW020 17/13 Q1018 NOSIG
15:54 Land
15:54 Wind:174º@004 Knots
15:54 Heading: 242º
15:54 Flight Duration: 01:11
15:54 Landing Weight: 188820 Lbs
15:54 POS N41º 18´ 02´´ E002º 05´ 20´´
15:59 Parking brakes on
15:59 Block to Block Duration: 01:16
15:59 Final Fuel: 6386Lbls
15:59 Spent Fuel: 15396 Lbls
15:59 Flight Length: 397 NM
15:59 TOD Land Length: 34 NM

Exportar CSV

Powered by Drupal - Modified by Danger4k